createdAt,value
2022-09-24T00:01:38.576Z,26.60
2022-09-24T00:04:07.973Z,28.40
2022-09-24T00:06:41.583Z,31.92
2022-09-24T00:09:11.507Z,25.38
2022-09-24T00:11:39.227Z,26.60
2022-09-24T00:14:08.395Z,24.67
2022-09-24T00:16:35.862Z,26.45
2022-09-24T00:19:03.870Z,27.00
2022-09-24T00:21:35.849Z,25.88
2022-09-24T00:24:08.279Z,24.42
2022-09-24T00:26:53.254Z,22.95
2022-09-24T00:29:22.844Z,25.77
2022-09-24T00:31:51.187Z,22.80
2022-09-24T00:34:21.666Z,24.60
2022-09-24T00:36:48.671Z,21.15
2022-09-24T00:39:16.207Z,22.73
2022-09-24T00:41:48.893Z,23.90
2022-09-24T00:44:40.794Z,24.38
2022-09-24T00:47:27.127Z,22.50
2022-09-24T00:50:06.322Z,24.42
2022-09-24T00:52:38.275Z,24.13
2022-09-24T00:55:06.206Z,26.45
2022-09-24T00:57:34.176Z,23.17
2022-09-24T01:00:01.069Z,25.50
2022-09-24T01:02:30.100Z,25.75
2022-09-24T01:04:59.626Z,24.60
2022-09-24T01:07:28.609Z,28.55
2022-09-24T01:09:55.352Z,28.95
2022-09-24T01:12:28.332Z,24.95
2022-09-24T01:15:18.119Z,27.55
2022-09-24T01:18:06.772Z,24.85
2022-09-24T01:21:10.776Z,27.30
2022-09-24T01:24:01.202Z,24.83
2022-09-24T01:26:48.123Z,25.35
2022-09-24T01:29:32.440Z,24.95
2022-09-24T01:32:07.623Z,27.65
2022-09-24T01:34:49.297Z,24.58
2022-09-24T01:37:20.652Z,25.77
2022-09-24T01:39:50.395Z,28.75
2022-09-24T01:42:18.674Z,28.20
2022-09-24T01:44:46.804Z,27.05
2022-09-24T01:47:23.082Z,35.42
2022-09-24T01:49:53.689Z,30.77
2022-09-24T01:52:26.073Z,28.90
2022-09-24T01:54:59.021Z,31.55
2022-09-24T01:57:35.859Z,31.75
2022-09-24T02:00:13.603Z,30.40
2022-09-24T02:02:47.690Z,28.90
2022-09-24T02:05:31.510Z,32.90
2022-09-24T02:07:59.029Z,28.50
2022-09-24T02:10:29.481Z,33.53
2022-09-24T02:13:02.402Z,33.45
2022-09-24T02:15:33.859Z,35.58
2022-09-24T02:18:06.036Z,35.80
2022-09-24T02:20:39.003Z,40.83
2022-09-24T02:23:07.827Z,48.42
2022-09-24T02:25:44.239Z,51.92
2022-09-24T02:28:11.084Z,48.13
2022-09-24T02:30:49.941Z,47.60
2022-09-24T02:33:39.403Z,42.53
2022-09-24T02:36:07.375Z,39.75
2022-09-24T02:38:34.072Z,41.65
2022-09-24T02:41:01.218Z,38.90
2022-09-24T02:43:27.990Z,37.10
2022-09-24T02:45:57.265Z,34.90
2022-09-24T02:48:23.990Z,34.67
2022-09-24T02:50:51.037Z,33.45
2022-09-24T02:53:20.024Z,36.38
2022-09-24T02:55:49.053Z,37.13
2022-09-24T02:58:16.010Z,35.97
2022-09-24T03:00:43.857Z,35.90
2022-09-24T03:03:10.607Z,43.33
2022-09-24T03:05:39.668Z,41.50
2022-09-24T03:08:08.981Z,46.42
2022-09-24T03:10:35.847Z,44.38
2022-09-24T03:13:04.828Z,48.03
2022-09-24T03:15:31.626Z,42.92
2022-09-24T03:17:58.386Z,45.70
2022-09-24T03:20:28.157Z,49.50
2022-09-24T03:22:57.055Z,47.58
2022-09-24T03:25:26.137Z,52.45
2022-09-24T03:27:53.189Z,49.85
2022-09-24T03:30:38.415Z,56.15
2022-09-24T03:33:05.165Z,52.95
2022-09-24T03:35:31.983Z,57.47
2022-09-24T03:37:58.768Z,56.53
2022-09-24T03:40:25.666Z,57.83
2022-09-24T03:42:55.470Z,52.55
2022-09-24T03:45:22.194Z,47.88
2022-09-24T03:47:49.076Z,48.45
2022-09-24T03:50:16.273Z,51.13
2022-09-24T03:52:45.253Z,49.63
2022-09-24T03:55:12.107Z,49.25
2022-09-24T03:57:38.890Z,48.00
2022-09-24T04:00:06.022Z,49.97
2022-09-24T04:02:32.847Z,50.13
2022-09-24T04:04:59.600Z,47.20
2022-09-24T04:07:26.326Z,50.20
2022-09-24T04:09:53.112Z,49.47
2022-09-24T04:12:20.599Z,50.60
2022-09-24T04:14:47.399Z,47.08
2022-09-24T04:17:16.283Z,48.63
2022-09-24T04:19:43.942Z,46.00
2022-09-24T04:22:12.850Z,52.40
2022-09-24T04:24:39.515Z,48.33
2022-09-24T04:27:06.258Z,47.95
2022-09-24T04:29:32.934Z,53.97
2022-09-24T04:31:59.645Z,58.97
2022-09-24T04:34:26.299Z,48.95
2022-09-24T04:36:53.067Z,48.53
2022-09-24T04:39:22.432Z,51.40
2022-09-24T04:41:49.098Z,50.63
2022-09-24T04:44:15.923Z,49.65
2022-09-24T04:46:47.422Z,46.78
2022-09-24T04:51:43.274Z,42.25
2022-09-24T04:54:10.334Z,44.90
2022-09-24T04:56:37.297Z,50.20
2022-09-24T04:59:06.450Z,44.60
2022-09-24T05:01:33.125Z,41.92
2022-09-24T05:04:02.364Z,41.05
2022-09-24T05:06:29.549Z,38.47
2022-09-24T05:08:56.242Z,39.22
2022-09-24T05:11:22.945Z,32.00
2022-09-24T05:13:49.627Z,26.42
2022-09-24T05:16:16.533Z,22.77
2022-09-24T05:18:45.510Z,15.88
2022-09-24T05:21:14.399Z,17.45
2022-09-24T05:23:43.246Z,16.55
2022-09-24T05:26:28.457Z,18.98
2022-09-24T05:28:55.231Z,14.63
2022-09-24T05:31:21.979Z,16.63
2022-09-24T05:33:49.338Z,13.90
2022-09-24T05:36:18.375Z,13.73
2022-09-24T05:38:45.554Z,14.23
2022-09-24T05:41:12.259Z,13.80
2022-09-24T05:43:39.005Z,15.02
2022-09-24T05:46:06.380Z,10.98
2022-09-24T05:48:33.355Z,13.48
2022-09-24T05:51:06.365Z,10.93
2022-09-24T05:53:33.904Z,10.38
2022-09-24T05:56:02.112Z,8.35
2022-09-24T05:58:31.512Z,11.30
2022-09-24T06:01:01.288Z,10.95
2022-09-24T06:03:31.803Z,8.15
2022-09-24T06:06:02.316Z,8.35
2022-09-24T06:08:31.301Z,10.18
2022-09-24T06:11:04.334Z,9.93
2022-09-24T06:13:34.977Z,12.43
2022-09-24T06:16:10.424Z,8.48
2022-09-24T06:18:41.571Z,9.25
2022-09-24T06:21:13.825Z,9.98
2022-09-24T06:23:41.298Z,9.00
2022-09-24T06:26:10.753Z,12.98
2022-09-24T06:28:38.482Z,9.98
2022-09-24T06:31:06.062Z,9.00
2022-09-24T06:33:32.987Z,11.68
2022-09-24T06:36:01.338Z,8.57
2022-09-24T06:38:28.646Z,6.30
2022-09-24T06:41:00.456Z,10.15
2022-09-24T06:43:27.670Z,8.75
2022-09-24T06:45:58.776Z,10.27
2022-09-24T06:48:27.501Z,9.15
2022-09-24T06:50:56.428Z,10.05
2022-09-24T06:53:23.659Z,12.27
2022-09-24T06:55:50.793Z,14.20
2022-09-24T06:58:21.202Z,10.63
2022-09-24T07:01:00.305Z,9.88
2022-09-24T07:03:28.744Z,9.82
2022-09-24T07:05:56.463Z,12.48
2022-09-24T07:08:23.811Z,14.60
2022-09-24T07:10:51.765Z,14.48
2022-09-24T07:13:21.177Z,14.15
2022-09-24T07:15:50.575Z,11.90
2022-09-24T07:18:17.955Z,19.05
2022-09-24T07:20:47.856Z,17.13
2022-09-24T07:23:16.737Z,14.65
2022-09-24T07:25:43.456Z,14.18
2022-09-24T07:28:18.692Z,15.88
2022-09-24T07:30:45.382Z,16.75
2022-09-24T07:33:12.119Z,11.68
2022-09-24T07:35:39.891Z,9.48
2022-09-24T07:38:11.978Z,8.93
2022-09-24T07:40:39.063Z,14.50
2022-09-24T07:43:07.545Z,11.68
2022-09-24T07:45:36.510Z,18.75
2022-09-24T07:48:05.318Z,10.18
2022-09-24T07:50:34.937Z,11.32
2022-09-24T07:53:01.856Z,15.35
2022-09-24T07:55:30.862Z,11.85
2022-09-24T07:57:57.801Z,11.25
2022-09-24T08:00:24.937Z,10.15
2022-09-24T08:02:56.428Z,11.60
2022-09-24T08:05:23.422Z,14.82
2022-09-24T08:07:57.757Z,19.08
2022-09-24T08:10:28.301Z,8.40
2022-09-24T08:12:57.256Z,10.38
2022-09-24T08:15:24.260Z,13.50
2022-09-24T08:17:53.192Z,12.40
2022-09-24T08:20:21.008Z,9.43
2022-09-24T08:22:53.138Z,14.43
2022-09-24T08:25:19.963Z,13.95
2022-09-24T08:27:49.135Z,13.32
2022-09-24T08:30:18.632Z,16.85
2022-09-24T08:32:52.588Z,12.85
2022-09-24T08:35:19.484Z,17.15
2022-09-24T08:37:48.356Z,14.95
2022-09-24T08:40:24.659Z,16.48
2022-09-24T08:43:13.400Z,17.88
2022-09-24T08:46:12.903Z,11.07
2022-09-24T08:48:45.907Z,19.15
2022-09-24T08:51:17.850Z,13.65
2022-09-24T08:54:14.687Z,18.20
2022-09-24T08:56:45.407Z,17.25
2022-09-24T08:59:30.405Z,18.70
2022-09-24T09:02:20.599Z,10.15
2022-09-24T09:05:05.162Z,15.00
2022-09-24T09:07:44.810Z,13.25
2022-09-24T09:10:16.523Z,15.55
2022-09-24T09:13:08.663Z,16.70
2022-09-24T09:15:43.904Z,17.00
2022-09-24T09:18:23.432Z,10.05
2022-09-24T09:21:05.814Z,9.02
2022-09-24T09:23:41.242Z,11.13
2022-09-24T09:26:12.299Z,11.77
2022-09-24T09:28:39.340Z,14.32
2022-09-24T09:31:25.009Z,12.93
2022-09-24T09:33:54.303Z,15.25
2022-09-24T09:36:35.856Z,12.52
2022-09-24T09:39:18.448Z,14.48
2022-09-24T09:42:23.615Z,15.32
2022-09-24T09:44:52.609Z,14.70
2022-09-24T09:47:54.459Z,10.48
2022-09-24T09:50:42.328Z,12.02
2022-09-24T09:53:21.096Z,7.72
2022-09-24T09:55:56.691Z,15.32
2022-09-24T09:58:29.065Z,11.80
2022-09-24T10:01:20.773Z,10.68
2022-09-24T10:03:52.459Z,9.48
2022-09-24T10:06:32.103Z,10.60
2022-09-24T10:09:20.950Z,11.57
2022-09-24T10:11:50.291Z,12.93
2022-09-24T10:14:21.701Z,8.80
2022-09-24T10:16:53.888Z,8.73
2022-09-24T10:19:23.344Z,13.27
2022-09-24T10:21:51.892Z,6.85
2022-09-24T10:24:22.668Z,12.23
2022-09-24T10:26:50.279Z,11.03
2022-09-24T10:29:51.026Z,13.60
2022-09-24T10:32:26.422Z,8.30
2022-09-24T10:35:00.506Z,9.93
2022-09-24T10:37:29.001Z,10.02
2022-09-24T10:40:25.617Z,12.25
2022-09-24T10:43:03.492Z,8.27
2022-09-24T10:45:59.041Z,8.10
2022-09-24T10:48:38.224Z,10.55
2022-09-24T10:51:11.819Z,10.75
2022-09-24T10:54:04.464Z,7.95
2022-09-24T10:56:34.036Z,6.70
2022-09-24T10:59:31.237Z,8.10
2022-09-24T11:02:04.083Z,10.63
2022-09-24T11:04:50.580Z,8.80
2022-09-24T11:07:52.537Z,5.97
2022-09-24T11:10:52.752Z,8.65
2022-09-24T11:13:25.265Z,7.93
2022-09-24T11:16:25.911Z,12.80
2022-09-24T11:19:03.873Z,8.48
2022-09-24T11:21:53.483Z,8.30
2022-09-24T11:24:45.941Z,10.80
2022-09-24T11:27:20.965Z,8.18
2022-09-24T11:30:19.720Z,9.38
2022-09-24T11:33:05.318Z,9.68
2022-09-24T11:35:32.273Z,12.90
2022-09-24T11:38:14.950Z,5.80
2022-09-24T11:41:17.020Z,9.55
2022-09-24T11:46:42.821Z,7.20
2022-09-24T11:49:53.166Z,7.22
2022-09-24T11:52:39.599Z,12.60
2022-09-24T11:55:20.042Z,10.32
2022-09-24T11:58:06.403Z,11.82
2022-09-24T12:00:40.567Z,13.50
2022-09-24T12:03:22.157Z,9.35
2022-09-24T12:05:59.670Z,10.15
2022-09-24T12:08:42.211Z,11.88
2022-09-24T12:11:16.475Z,10.52
2022-09-24T12:13:52.267Z,8.38
2022-09-24T12:16:24.231Z,9.93
2022-09-24T12:19:06.134Z,11.63
2022-09-24T12:21:36.717Z,9.00
2022-09-24T12:24:10.559Z,17.15
2022-09-24T12:26:41.935Z,10.20
2022-09-24T12:29:49.232Z,12.70
2022-09-24T12:32:58.842Z,10.77
2022-09-24T12:35:28.825Z,10.48
2022-09-24T12:38:03.311Z,11.35
2022-09-24T12:40:54.950Z,9.30
2022-09-24T12:43:46.274Z,9.95
2022-09-24T12:46:24.289Z,8.95
2022-09-24T12:48:54.628Z,12.30
2022-09-24T12:51:24.978Z,8.52
2022-09-24T12:53:59.316Z,13.07
2022-09-24T12:56:29.773Z,8.00
2022-09-24T12:58:57.630Z,7.85
2022-09-24T13:01:26.754Z,10.82
2022-09-24T13:04:26.363Z,8.15
2022-09-24T13:06:53.413Z,8.45
2022-09-24T13:09:25.846Z,11.23
2022-09-24T13:12:24.365Z,9.70
2022-09-24T13:15:14.090Z,8.27
2022-09-24T13:17:43.600Z,10.13
2022-09-24T13:20:25.960Z,8.48
2022-09-24T13:23:12.480Z,7.05
2022-09-24T13:25:39.582Z,5.82
2022-09-24T13:28:38.337Z,6.22
2022-09-24T13:31:25.354Z,10.48
2022-09-24T13:33:58.898Z,6.07
2022-09-24T13:37:01.374Z,9.55
2022-09-24T13:39:47.489Z,5.80
2022-09-24T13:42:33.137Z,6.65
2022-09-24T13:45:08.792Z,6.00
2022-09-24T13:47:39.361Z,9.07
2022-09-24T13:50:29.266Z,12.30
2022-09-24T13:53:07.405Z,9.60
2022-09-24T13:55:44.521Z,9.18
2022-09-24T13:58:29.560Z,8.35
2022-09-24T14:00:58.437Z,7.95
2022-09-24T14:03:33.497Z,5.68
2022-09-24T14:06:13.320Z,5.65
2022-09-24T14:08:45.988Z,5.85
2022-09-24T14:11:27.476Z,7.65
2022-09-24T14:13:56.377Z,6.15
2022-09-24T14:16:27.187Z,6.63
2022-09-24T14:19:05.531Z,7.10
2022-09-24T14:21:55.103Z,7.95
2022-09-24T14:24:24.846Z,5.07
2022-09-24T14:27:09.881Z,6.35
2022-09-24T14:30:00.283Z,7.18
2022-09-24T14:32:39.911Z,9.38
2022-09-24T14:35:20.407Z,8.85
2022-09-24T14:38:01.309Z,5.43
2022-09-24T14:40:28.925Z,8.35
2022-09-24T14:43:02.180Z,7.22
2022-09-24T14:45:40.522Z,5.70
2022-09-24T14:48:18.321Z,8.80
2022-09-24T14:50:48.473Z,6.45
2022-09-24T14:53:43.629Z,5.18
2022-09-24T14:56:21.620Z,4.47
2022-09-24T14:58:51.635Z,3.60
2022-09-24T15:01:21.655Z,4.32
2022-09-24T15:03:54.907Z,7.10
2022-09-24T15:06:28.041Z,2.88
2022-09-24T15:09:30.098Z,4.63
2022-09-24T15:12:17.755Z,4.80
2022-09-24T15:14:56.007Z,4.93
2022-09-24T15:17:27.058Z,4.57
2022-09-24T15:19:58.084Z,4.85
2022-09-24T15:22:27.000Z,6.97
2022-09-24T15:25:00.271Z,5.22
2022-09-24T15:27:31.266Z,7.45
2022-09-24T15:29:59.954Z,6.72
2022-09-24T15:32:28.797Z,5.93
2022-09-24T15:34:56.632Z,6.38
2022-09-24T15:37:27.316Z,7.00
2022-09-24T15:39:58.658Z,5.03
2022-09-24T15:42:26.839Z,7.10
2022-09-24T15:44:54.704Z,7.90
2022-09-24T15:47:21.482Z,7.72
2022-09-24T15:49:48.215Z,7.25
2022-09-24T15:52:14.880Z,10.30
2022-09-24T15:54:41.949Z,7.35
2022-09-24T15:57:15.055Z,4.47
2022-09-24T15:59:47.024Z,7.05
2022-09-24T16:02:24.686Z,7.78
2022-09-24T16:04:53.727Z,10.10
2022-09-24T16:07:20.592Z,10.27
2022-09-24T16:09:49.807Z,8.10
2022-09-24T16:12:17.487Z,10.45
2022-09-24T16:14:44.405Z,9.10
2022-09-24T16:17:13.457Z,7.10
2022-09-24T16:19:40.209Z,8.13
2022-09-24T16:22:06.981Z,7.03
2022-09-24T16:24:34.823Z,6.78
2022-09-24T16:27:04.122Z,5.95
2022-09-24T16:29:31.023Z,6.40
2022-09-24T16:31:57.751Z,6.97
2022-09-24T16:34:27.502Z,4.15
2022-09-24T16:36:57.073Z,8.07
2022-09-24T16:39:23.772Z,7.10
2022-09-24T16:41:54.242Z,6.60
2022-09-24T16:44:20.997Z,5.72
2022-09-24T16:46:55.533Z,10.52
2022-09-24T16:49:23.826Z,6.35
2022-09-24T16:51:50.952Z,6.65
2022-09-24T16:54:20.081Z,5.35
2022-09-24T16:56:52.438Z,6.40
2022-09-24T16:59:19.349Z,5.25
2022-09-24T17:01:48.319Z,6.93
2022-09-24T17:04:15.395Z,5.43
2022-09-24T17:06:45.877Z,4.32
2022-09-24T17:09:31.306Z,5.70
2022-09-24T17:12:00.360Z,5.07
2022-09-24T17:14:29.341Z,5.70
2022-09-24T17:16:56.487Z,4.85
2022-09-24T17:19:25.729Z,7.25
2022-09-24T17:21:54.774Z,5.63
2022-09-24T17:24:24.497Z,4.22
2022-09-24T17:26:51.470Z,7.32
2022-09-24T17:29:22.575Z,7.88
2022-09-24T17:31:49.743Z,6.72
2022-09-24T17:34:19.162Z,3.83
2022-09-24T17:36:46.215Z,4.35
2022-09-24T17:39:13.595Z,6.65
2022-09-24T17:41:40.778Z,3.95
2022-09-24T17:44:12.418Z,4.80
2022-09-24T17:49:08.186Z,9.32
2022-09-24T17:51:36.658Z,5.38
2022-09-24T17:54:06.813Z,8.63
2022-09-24T17:56:39.352Z,5.13
2022-09-24T17:59:11.386Z,7.40
2022-09-24T18:01:39.792Z,5.20
2022-09-24T18:04:10.139Z,7.35
2022-09-24T18:06:39.357Z,7.38
2022-09-24T18:09:06.625Z,3.28
2022-09-24T18:11:39.794Z,5.18
2022-09-24T18:14:12.039Z,7.00
2022-09-24T18:16:38.908Z,6.93
2022-09-24T18:19:09.090Z,8.00
2022-09-24T18:21:35.875Z,6.97
2022-09-24T18:24:03.076Z,9.43
2022-09-24T18:26:34.993Z,7.40
2022-09-24T18:29:10.280Z,5.93
2022-09-24T18:31:38.230Z,7.68
2022-09-24T18:34:07.665Z,7.43
2022-09-24T18:36:37.470Z,9.10
2022-09-24T18:39:06.579Z,6.68
2022-09-24T18:41:37.319Z,7.53
2022-09-24T18:44:07.266Z,6.67
2022-09-24T18:46:35.367Z,8.45
2022-09-24T18:49:02.667Z,6.80
2022-09-24T18:51:35.962Z,5.60
2022-09-24T18:54:24.563Z,8.95
2022-09-24T18:56:58.552Z,6.22
2022-09-24T18:59:26.168Z,7.32
2022-09-24T19:01:52.973Z,9.98
2022-09-24T19:04:19.901Z,9.18
2022-09-24T19:06:51.916Z,10.43
2022-09-24T19:09:20.049Z,11.63
2022-09-24T19:11:48.712Z,11.70
2022-09-24T19:14:18.416Z,10.57
2022-09-24T19:16:48.166Z,9.30
2022-09-24T19:19:16.118Z,6.65
2022-09-24T19:21:45.035Z,9.50
2022-09-24T19:24:11.909Z,9.38
2022-09-24T19:26:40.876Z,7.63
2022-09-24T19:29:07.836Z,7.35
2022-09-24T19:31:40.421Z,8.48
2022-09-24T19:34:10.155Z,10.20
2022-09-24T19:36:44.913Z,7.90
2022-09-24T19:39:14.380Z,10.77
2022-09-24T19:41:41.611Z,10.40
2022-09-24T19:44:09.337Z,15.48
2022-09-24T19:46:38.365Z,8.68
2022-09-24T19:49:06.114Z,10.05
2022-09-24T19:51:34.616Z,9.85
2022-09-24T19:54:03.674Z,10.15
2022-09-24T19:56:31.836Z,8.40
2022-09-24T19:59:00.161Z,9.50
2022-09-24T20:01:30.816Z,9.57
2022-09-24T20:04:01.946Z,11.97
2022-09-24T20:06:31.142Z,11.45
2022-09-24T20:08:57.881Z,8.98
2022-09-24T20:11:27.518Z,11.10
2022-09-24T20:13:56.428Z,10.18
2022-09-24T20:16:26.727Z,11.82
2022-09-24T20:18:57.430Z,10.25
2022-09-24T20:21:27.688Z,9.47
2022-09-24T20:23:56.616Z,7.22
2022-09-24T20:26:43.874Z,11.02
2022-09-24T20:29:13.634Z,7.05
2022-09-24T20:31:53.857Z,7.70
2022-09-24T20:34:23.947Z,6.82
2022-09-24T20:36:51.465Z,8.60
2022-09-24T20:39:18.707Z,10.43
2022-09-24T20:41:47.603Z,12.02
2022-09-24T20:44:14.315Z,9.65
2022-09-24T20:46:41.261Z,6.82
2022-09-24T20:49:08.065Z,12.25
2022-09-24T20:51:38.809Z,7.70
2022-09-24T20:54:05.728Z,8.32
2022-09-24T20:56:32.605Z,13.73
2022-09-24T20:59:00.925Z,7.15
2022-09-24T21:01:29.899Z,10.60
2022-09-24T21:03:58.310Z,11.48
2022-09-24T21:06:28.095Z,7.35
2022-09-24T21:08:54.864Z,7.60
2022-09-24T21:11:26.066Z,23.23
2022-09-24T21:13:55.230Z,28.75
2022-09-24T21:16:25.126Z,15.68
2022-09-24T21:18:56.264Z,14.07
2022-09-24T21:21:28.986Z,11.82
2022-09-24T21:23:58.264Z,9.85
2022-09-24T21:26:30.113Z,10.05
2022-09-24T21:29:03.965Z,10.40
2022-09-24T21:31:33.048Z,10.32
2022-09-24T21:34:00.276Z,9.02
2022-09-24T21:36:29.376Z,10.77
2022-09-24T21:39:08.489Z,9.45
2022-09-24T21:41:39.826Z,14.45
2022-09-24T21:44:08.356Z,10.38
2022-09-24T21:46:35.678Z,8.48
2022-09-24T21:49:02.835Z,9.25
2022-09-24T21:51:32.276Z,9.90
2022-09-24T21:54:04.590Z,10.68
2022-09-24T21:56:32.895Z,11.48
2022-09-24T21:58:59.976Z,10.18
2022-09-24T22:01:30.470Z,7.82
2022-09-24T22:04:07.374Z,11.13
2022-09-24T22:06:39.646Z,6.53
2022-09-24T22:09:09.064Z,8.10
2022-09-24T22:11:37.091Z,14.68
2022-09-24T22:14:07.197Z,9.50
2022-09-24T22:16:36.277Z,12.45
2022-09-24T22:19:04.547Z,7.32
2022-09-24T22:21:32.087Z,11.70
2022-09-24T22:23:58.961Z,7.70
2022-09-24T22:26:29.797Z,10.63
2022-09-24T22:28:57.842Z,7.90
2022-09-24T22:31:24.885Z,9.48
2022-09-24T22:34:10.916Z,8.32
2022-09-24T22:36:38.075Z,10.07
2022-09-24T22:39:08.568Z,12.38
2022-09-24T22:41:37.837Z,8.05
2022-09-24T22:44:04.857Z,5.95
2022-09-24T22:46:33.213Z,6.32
2022-09-24T22:49:00.123Z,9.80
2022-09-24T22:51:27.542Z,8.52
2022-09-24T22:53:55.623Z,10.45
2022-09-24T22:56:25.214Z,8.70
2022-09-24T22:58:57.457Z,9.30
2022-09-24T23:01:30.294Z,8.98
2022-09-24T23:04:00.269Z,9.70
2022-09-24T23:06:27.409Z,6.88
2022-09-24T23:08:55.592Z,8.02
2022-09-24T23:11:29.051Z,8.20
2022-09-24T23:13:58.852Z,9.40
2022-09-24T23:16:28.586Z,13.20
2022-09-24T23:18:58.084Z,10.18
2022-09-24T23:21:27.051Z,5.78
2022-09-24T23:23:55.417Z,12.55
2022-09-24T23:26:23.662Z,6.35
2022-09-24T23:28:52.839Z,7.30
2022-09-24T23:31:22.427Z,4.95
2022-09-24T23:33:51.865Z,6.80
2022-09-24T23:36:18.764Z,5.13
2022-09-24T23:38:45.662Z,4.90
2022-09-24T23:41:13.541Z,8.15
2022-09-24T23:43:41.576Z,5.78
2022-09-24T23:46:09.595Z,6.72
2022-09-24T23:48:36.856Z,6.07
2022-09-24T23:51:04.775Z,4.43
2022-09-24T23:53:34.168Z,8.07
2022-09-24T23:56:02.423Z,5.38
2022-09-24T23:58:29.666Z,5.70
